This is the latest recevied weather packets stored in our database for station/object WX6HNX-14. If no packets are shown the sender has not sent any weather packets the latest 10 day(s).
| Time | Temp. | Humidity | Pressure | Rain* | Wind** | Luminosity | Snow |
|---|---|---|---|---|---|---|---|
| 1777636440 | 15° C | 71% | 1013.8 hPa | 0 mm | - | - | - |
| 1777636140 | 15.56° C | 70% | 1013.7 hPa | 0 mm | - | - | - |
| 1777635856 | 15.56° C | 70% | 1013.7 hPa | 0 mm | - | - | - |
| 1777635540 | 15.56° C | 70% | 1013.7 hPa | 0 mm | - | - | - |
| 1777635241 | 15.56° C | 70% | 1013.8 hPa | 0 mm | - | - | - |
| 1777634941 | 15.56° C | 70% | 1013.8 hPa | 0 mm | - | - | - |
| 1777634641 | 15.56° C | 70% | 1013.7 hPa | 0 mm | - | - | - |
| 1777634187 | 15° C | 72% | 1013.7 hPa | 0 mm | - | - | - |
| 1777633886 | 15° C | 72% | 1013.7 hPa | 0 mm | - | - | - |
| 1777632986 | 15° C | 72% | 1013.6 hPa | 0 mm | - | - | - |
| 1777632687 | 15° C | 71% | 1013.6 hPa | 0 mm | - | - | - |
| 1777632387 | 15.56° C | 71% | 1013.6 hPa | 0 mm | - | - | - |
| 1777631787 | 15.56° C | 68% | 1013.6 hPa | 0 mm | - | - | - |
| 1777631486 | 16.11° C | 67% | 1013.5 hPa | 0 mm | - | - | - |
| 1777631187 | 16.11° C | 66% | 1013.5 hPa | 0 mm | - | - | - |
| 1777630887 | 16.67° C | 66% | 1013.4 hPa | 0 mm | - | - | - |
| 1777630587 | 16.67° C | 65% | 1013.4 hPa | 0 mm | - | - | - |
| 1777629971 | 17.22° C | 62% | 1013.3 hPa | 0 mm | - | - | - |
| 1777629671 | 17.22° C | 61% | 1013.2 hPa | 0 mm | - | - | - |
| 1777629371 | 17.22° C | 60% | 1013.2 hPa | 0 mm | - | - | - |
| 1777628471 | 17.78° C | 58% | 1013.2 hPa | 0 mm | - | - | - |
| 1777628171 | 18.33° C | 55% | 1013.1 hPa | 0 mm | - | - | - |
| 1777627871 | 18.89° C | 54% | 1013.1 hPa | 0 mm | - | - | - |
| 1777627571 | 18.89° C | 55% | 1013.1 hPa | 0 mm | - | - | - |
| 1777627271 | 18.89° C | 55% | 1013.2 hPa | 0 mm | - | - | - |
* Rain latest hour (hover to see other rain measurements)
** Current wind speed in m/s (hover to see current wind gust speed)